createdAt,value
2019-03-12T00:01:15.592Z,8.60
2019-03-12T00:06:18.054Z,6.10
2019-03-12T00:11:20.529Z,9.07
2019-03-12T00:16:22.994Z,7.43
2019-03-12T00:21:25.452Z,6.37
2019-03-12T00:26:27.908Z,8.37
2019-03-12T00:31:30.369Z,9.20
2019-03-12T00:36:32.837Z,7.50
2019-03-12T00:41:35.300Z,7.03
2019-03-12T00:46:37.756Z,8.73
2019-03-12T00:51:40.269Z,7.87
2019-03-12T00:56:42.757Z,10.47
2019-03-12T01:01:45.215Z,6.87
2019-03-12T01:06:47.676Z,9.87
2019-03-12T01:11:50.137Z,9.60
2019-03-12T01:16:52.599Z,7.87
2019-03-12T01:21:55.070Z,8.80
2019-03-12T01:26:57.602Z,5.73
2019-03-12T01:32:00.066Z,6.87
2019-03-12T01:37:02.538Z,9.13
2019-03-12T01:42:05.016Z,6.23
2019-03-12T01:47:07.477Z,6.40
2019-03-12T01:52:09.939Z,7.37
2019-03-12T01:57:12.395Z,11.57
2019-03-12T02:02:14.867Z,8.70
2019-03-12T02:07:17.343Z,12.07
2019-03-12T02:12:19.810Z,7.23
2019-03-12T02:17:22.318Z,10.27
2019-03-12T02:22:24.806Z,10.20
2019-03-12T02:27:27.262Z,12.80
2019-03-12T02:32:29.734Z,11.40
2019-03-12T02:37:32.205Z,10.23
2019-03-12T02:42:34.689Z,11.43
2019-03-12T02:47:37.146Z,12.63
2019-03-12T02:52:39.617Z,6.10
2019-03-12T02:57:42.093Z,14.97
2019-03-12T03:02:44.558Z,10.77
2019-03-12T03:07:56.105Z,9.93
2019-03-12T03:12:58.575Z,13.33
2019-03-12T03:18:01.045Z,8.00
2019-03-12T03:23:03.527Z,9.60
2019-03-12T03:28:05.990Z,11.63
2019-03-12T03:33:08.473Z,10.80
2019-03-12T03:38:10.995Z,10.43
2019-03-12T03:43:13.466Z,10.83
2019-03-12T03:48:15.980Z,17.00
2019-03-12T03:53:18.444Z,12.03
2019-03-12T03:58:20.911Z,16.27
2019-03-12T04:03:23.377Z,10.97
2019-03-12T04:08:25.863Z,15.43
2019-03-12T04:13:28.328Z,12.53
2019-03-12T04:18:30.797Z,16.27
2019-03-12T04:23:33.282Z,9.23
2019-03-12T04:28:35.749Z,15.97
2019-03-12T04:33:59.703Z,15.30
2019-03-12T04:39:02.167Z,12.33
2019-03-12T04:44:04.645Z,14.23
2019-03-12T04:49:07.108Z,11.73
2019-03-12T04:54:09.576Z,12.33
2019-03-12T04:59:12.062Z,23.17
2019-03-12T05:04:14.537Z,22.90
2019-03-12T05:09:17.006Z,11.93
2019-03-12T05:14:25.282Z,16.07
2019-03-12T05:19:27.682Z,16.17
2019-03-12T05:24:30.168Z,19.80
2019-03-12T05:29:32.620Z,15.47
2019-03-12T05:34:35.110Z,12.70
2019-03-12T05:39:37.577Z,15.37
2019-03-12T05:44:40.067Z,14.50
2019-03-12T05:49:42.542Z,14.80
2019-03-12T05:54:45.030Z,17.03
2019-03-12T05:59:47.501Z,12.17
2019-03-12T06:04:49.977Z,18.97
2019-03-12T06:09:52.444Z,13.60
2019-03-12T06:14:54.916Z,14.50
2019-03-12T06:19:57.394Z,18.80
2019-03-12T06:25:00.077Z,18.60
2019-03-12T06:30:02.351Z,18.63
2019-03-12T06:35:04.806Z,15.83
2019-03-12T06:40:22.210Z,12.63
2019-03-12T06:45:24.692Z,9.93
2019-03-12T06:50:27.138Z,12.17
2019-03-12T06:55:35.666Z,12.90
2019-03-12T07:00:41.005Z,11.73
2019-03-12T07:05:46.460Z,12.40
2019-03-12T07:10:51.944Z,12.73
2019-03-12T07:15:57.150Z,13.37
2019-03-12T07:21:02.803Z,14.43
2019-03-12T07:26:14.503Z,15.97
2019-03-12T07:31:17.036Z,15.27
2019-03-12T07:36:34.565Z,12.37
2019-03-12T07:41:37.041Z,10.63
2019-03-12T07:46:45.435Z,9.40
2019-03-12T07:51:53.851Z,15.47
2019-03-12T07:57:14.746Z,9.73
2019-03-12T08:02:17.216Z,21.63
2019-03-12T08:07:22.805Z,11.73
2019-03-12T08:12:25.286Z,10.80
2019-03-12T08:17:30.786Z,8.50
2019-03-12T08:22:33.248Z,7.33
2019-03-12T08:27:44.874Z,8.10
2019-03-12T08:32:56.534Z,10.40
2019-03-12T08:38:05.175Z,8.97
2019-03-12T08:43:07.649Z,5.83
2019-03-12T08:48:12.609Z,7.17
2019-03-12T08:53:21.601Z,9.67
2019-03-12T08:58:26.969Z,5.85
2019-03-12T09:03:29.448Z,6.43
2019-03-12T09:08:38.239Z,6.37
2019-03-12T09:13:40.705Z,6.80
2019-03-12T09:18:43.247Z,9.43
2019-03-12T09:24:03.730Z,9.63
2019-03-12T09:29:06.206Z,12.97
2019-03-12T09:34:08.688Z,21.00
2019-03-12T09:39:26.430Z,20.00
2019-03-12T09:44:28.895Z,11.80
2019-03-12T09:49:37.302Z,12.57
2019-03-12T09:54:42.702Z,10.63
2019-03-12T10:00:15.536Z,9.50
2019-03-12T10:05:17.403Z,10.63
2019-03-12T10:10:19.877Z,10.03
2019-03-12T10:15:25.234Z,10.10
2019-03-12T10:20:45.886Z,14.13
2019-03-12T10:25:54.531Z,12.30
2019-03-12T10:31:09.083Z,12.30
2019-03-12T10:36:17.478Z,18.03
2019-03-12T10:41:19.815Z,10.87
2019-03-12T10:46:28.225Z,9.70
2019-03-12T10:51:30.681Z,8.60
2019-03-12T10:56:33.177Z,9.37
2019-03-12T11:01:35.638Z,10.70
2019-03-12T11:06:38.104Z,8.90
2019-03-12T11:11:40.574Z,9.77
2019-03-12T11:16:43.041Z,11.77
2019-03-12T11:21:45.579Z,14.70
2019-03-12T11:26:48.042Z,10.53
2019-03-12T11:31:50.616Z,8.83
2019-03-12T11:36:53.054Z,11.50
2019-03-12T11:41:55.485Z,9.80
2019-03-12T11:46:58.068Z,15.20
2019-03-12T11:52:00.500Z,17.77
2019-03-12T11:57:03.005Z,17.27
2019-03-12T12:02:05.449Z,13.67
2019-03-12T12:07:07.996Z,14.63
2019-03-12T12:12:10.376Z,15.90
2019-03-12T12:17:12.870Z,12.33
2019-03-12T12:22:15.372Z,14.67
2019-03-12T12:27:17.881Z,10.07
2019-03-12T12:32:20.315Z,7.47
2019-03-12T12:37:22.790Z,9.00
2019-03-12T12:42:25.248Z,5.93
2019-03-12T12:47:27.704Z,9.60
2019-03-12T12:52:30.169Z,6.43
2019-03-12T12:57:32.632Z,7.67
2019-03-12T13:02:35.094Z,6.23
2019-03-12T13:07:37.571Z,10.97
2019-03-12T13:12:41.298Z,8.83
2019-03-12T13:17:42.496Z,8.97
2019-03-12T13:22:44.969Z,8.27
2019-03-12T13:27:47.437Z,5.67
2019-03-12T13:32:51.226Z,7.57
2019-03-12T13:37:52.457Z,8.10
2019-03-12T13:42:54.927Z,8.27
2019-03-12T13:47:57.384Z,7.73
2019-03-12T13:52:59.866Z,6.03
2019-03-12T13:58:02.336Z,7.73
2019-03-12T14:03:04.804Z,5.03
2019-03-12T14:08:07.275Z,8.77
2019-03-12T14:13:09.751Z,7.17
2019-03-12T14:18:12.217Z,6.83
2019-03-12T14:23:14.686Z,6.30
2019-03-12T14:28:17.155Z,6.33
2019-03-12T14:33:19.624Z,8.10
2019-03-12T14:38:22.118Z,10.83
2019-03-12T14:43:24.604Z,6.30
2019-03-12T14:48:45.482Z,5.97
2019-03-12T14:53:56.991Z,5.63
2019-03-12T14:58:59.459Z,5.47
2019-03-12T15:04:01.946Z,7.40
2019-03-12T15:09:04.423Z,8.83
2019-03-12T15:14:06.907Z,4.97
2019-03-12T15:19:09.439Z,5.77
2019-03-12T15:24:11.899Z,5.60
2019-03-12T15:29:14.370Z,13.23
2019-03-12T15:34:16.822Z,8.00
2019-03-12T15:39:19.285Z,6.70
2019-03-12T15:44:21.743Z,5.00
2019-03-12T15:49:24.214Z,7.20
2019-03-12T15:54:26.675Z,5.93
2019-03-12T15:59:29.144Z,5.40
2019-03-12T16:04:31.609Z,5.20
2019-03-12T16:09:34.096Z,4.80
2019-03-12T16:14:36.562Z,6.00
2019-03-12T16:19:39.056Z,7.00
2019-03-12T16:24:41.545Z,9.47
2019-03-12T16:29:44.012Z,4.37
2019-03-12T16:34:46.478Z,5.13
2019-03-12T16:39:48.976Z,5.13
2019-03-12T16:44:51.550Z,5.60
2019-03-12T16:49:54.009Z,4.77
2019-03-12T16:54:56.619Z,6.57
2019-03-12T16:59:59.017Z,5.30
2019-03-12T17:05:03.823Z,5.03
2019-03-12T17:10:03.940Z,7.63
2019-03-12T17:15:09.079Z,15.20
2019-03-12T17:20:11.563Z,6.93
2019-03-12T17:25:14.035Z,11.63
2019-03-12T17:30:19.428Z,14.60
2019-03-12T17:35:37.330Z,11.87
2019-03-12T17:40:39.798Z,9.30
2019-03-12T17:45:42.258Z,6.73
2019-03-12T17:50:44.748Z,6.43
2019-03-12T17:55:47.202Z,10.33
2019-03-12T18:00:49.664Z,3.67
2019-03-12T18:05:52.124Z,4.87
2019-03-12T18:10:54.595Z,6.00
2019-03-12T18:15:57.034Z,5.17
2019-03-12T18:20:59.547Z,4.93
2019-03-12T18:26:02.024Z,6.47
2019-03-12T18:31:04.473Z,10.50
2019-03-12T18:36:07.054Z,9.57
2019-03-12T18:41:09.563Z,5.20
2019-03-12T18:46:12.031Z,6.37
2019-03-12T18:51:14.557Z,5.23
2019-03-12T18:56:17.007Z,7.10
2019-03-12T19:01:19.466Z,3.40
2019-03-12T19:06:21.947Z,5.70
2019-03-12T19:11:24.397Z,6.17
2019-03-12T19:16:26.865Z,5.67
2019-03-12T19:21:29.347Z,6.47
2019-03-12T19:26:31.836Z,3.03
2019-03-12T19:31:34.309Z,3.23
2019-03-12T19:36:36.778Z,7.30
2019-03-12T19:41:39.255Z,6.63
2019-03-12T19:46:41.746Z,7.27
2019-03-12T19:51:44.234Z,5.07
2019-03-12T19:56:46.717Z,5.57
2019-03-12T20:01:49.195Z,6.17
2019-03-12T20:06:54.469Z,5.87
2019-03-12T20:12:11.952Z,7.17
2019-03-12T20:17:36.276Z,4.23
2019-03-12T20:23:09.210Z,7.37
2019-03-12T20:28:24.239Z,4.97
2019-03-12T20:33:41.683Z,4.40
2019-03-12T20:39:17.854Z,4.37
2019-03-12T20:44:38.663Z,3.70
2019-03-12T20:50:08.521Z,4.90
2019-03-12T20:55:20.058Z,4.90
2019-03-12T21:00:59.743Z,4.30
2019-03-12T21:06:32.871Z,3.63
2019-03-12T21:11:44.282Z,5.77
2019-03-12T21:17:23.683Z,10.33
2019-03-12T21:22:44.650Z,5.50
2019-03-12T21:27:52.992Z,7.07
2019-03-12T21:32:55.481Z,6.50
2019-03-12T21:37:57.958Z,6.57
2019-03-12T21:43:00.441Z,5.80
2019-03-12T21:48:02.902Z,3.53
2019-03-12T21:53:05.373Z,5.67
2019-03-12T21:58:07.860Z,7.97
2019-03-12T22:03:10.363Z,5.20
2019-03-12T22:08:12.828Z,5.97
2019-03-12T22:13:15.289Z,3.97
2019-03-12T22:18:17.772Z,3.53
2019-03-12T22:23:20.239Z,3.90
2019-03-12T22:28:22.738Z,5.53
2019-03-12T22:33:25.214Z,6.40
2019-03-12T22:38:27.686Z,8.03
2019-03-12T22:43:30.134Z,4.90
2019-03-12T22:48:32.623Z,7.47
2019-03-12T22:53:35.060Z,9.37
2019-03-12T22:58:37.539Z,11.20
2019-03-12T23:03:39.995Z,3.57
2019-03-12T23:08:42.450Z,2.37
2019-03-12T23:13:44.931Z,4.37
2019-03-12T23:18:47.440Z,5.60
2019-03-12T23:23:49.887Z,2.87
2019-03-12T23:28:52.386Z,2.93
2019-03-12T23:33:54.855Z,2.27
2019-03-12T23:38:57.339Z,2.37
2019-03-12T23:43:59.791Z,1.27
2019-03-12T23:49:02.264Z,1.27
2019-03-12T23:54:04.745Z,1.57
2019-03-12T23:59:07.210Z,2.23
